aviador You're here:

KNEW Decoded Metar

NEW ORLEANS/LAKE in LA, USA
Report Time2018-01-17 17:53:00
UTC Time2018-01-17 18:17:32
Flight Rules vfr VFR
Wind360° at 14 Gusting to 22 kt
W.Decomp.*RWY 36: 14.0 kt HW 0.5 kt LCW
RWY 27: 0.5 kt HW 14.0 kt RCW
Visibility9999 m
Phenomena:N/A
Clouds:N/A
Expected CloudBase > 2,400 ft AGL from Temp-Dew spread
CeilingNone
Temp-2°C (ISA -17)
Dew Point-8°C (64% RH)
AAT-9.9°C
QNH1038 hPa
Density Alt-2,877 ft
Elevation10 ft
Report Wrong Elevation
Raw Report
KNEW 171753Z 36014G22KT 10SM CLR M02/M08 A3064 RMK AO2 SLP368
T10171078 11017 21067 58009=

Extra information for KNEW:More info

Metar Taf Metar & Taf Last 4 Metars F.Rules Stats Wind Profile Meteogram Temp Stats Airport Information Weather charts Add Link Nearby VenuesMetar ALERT Operation Metar Decoded Social comments

AIRNAV info for KNEW